createdAt,value
2017-07-08T00:00:13.040Z,0
2017-07-08T00:01:13.064Z,0
2017-07-08T00:02:13.130Z,0
2017-07-08T00:03:13.115Z,0
2017-07-08T00:04:13.172Z,0
2017-07-08T00:05:13.209Z,0
2017-07-08T00:06:13.238Z,0
2017-07-08T00:07:13.281Z,0
2017-07-08T00:08:13.324Z,0
2017-07-08T00:09:13.376Z,0
2017-07-08T00:10:13.393Z,0
2017-07-08T00:11:13.431Z,0
2017-07-08T00:12:13.440Z,0
2017-07-08T00:13:13.491Z,0
2017-07-08T00:14:13.526Z,0
2017-07-08T00:15:13.550Z,0
2017-07-08T00:16:13.585Z,0
2017-07-08T00:17:13.622Z,0
2017-07-08T00:18:13.672Z,0
2017-07-08T00:19:13.711Z,0
2017-07-08T00:20:13.743Z,0
2017-07-08T00:21:13.778Z,0
2017-07-08T00:22:13.822Z,0
2017-07-08T00:23:13.908Z,0
2017-07-08T00:24:13.881Z,0
2017-07-08T00:25:13.924Z,0
2017-07-08T00:26:13.966Z,0
2017-07-08T00:27:13.990Z,0
2017-07-08T00:28:14.013Z,0
2017-07-08T00:29:14.059Z,0
2017-07-08T00:30:14.098Z,0
2017-07-08T00:31:14.140Z,0
2017-07-08T00:32:14.169Z,0
2017-07-08T00:33:14.213Z,0
2017-07-08T00:34:14.229Z,0
2017-07-08T00:35:14.283Z,0
2017-07-08T00:36:14.313Z,0
2017-07-08T00:37:14.345Z,0
2017-07-08T00:38:14.391Z,0
2017-07-08T00:39:14.402Z,0
2017-07-08T00:40:14.461Z,0
2017-07-08T00:41:14.494Z,0
2017-07-08T00:42:14.526Z,0
2017-07-08T00:43:14.569Z,0
2017-07-08T00:44:14.577Z,0
2017-07-08T00:45:14.650Z,0
2017-07-08T00:46:14.678Z,0
2017-07-08T00:47:14.717Z,0
2017-07-08T00:48:14.747Z,0
2017-07-08T00:49:14.773Z,0
2017-07-08T00:50:14.823Z,0
2017-07-08T00:51:14.851Z,0
2017-07-08T00:52:14.880Z,0
2017-07-08T00:53:14.911Z,0
2017-07-08T00:54:14.943Z,0
2017-07-08T00:55:14.991Z,0
2017-07-08T00:56:15.021Z,0
2017-07-08T00:57:15.040Z,0
2017-07-08T00:58:15.094Z,0
2017-07-08T00:59:15.175Z,0
2017-07-08T01:00:15.142Z,0
2017-07-08T01:01:15.201Z,0
2017-07-08T01:02:15.224Z,0
2017-07-08T01:03:15.302Z,0
2017-07-08T01:04:15.321Z,0
2017-07-08T01:05:15.342Z,0
2017-07-08T01:06:15.377Z,0
2017-07-08T01:07:15.415Z,0
2017-07-08T01:08:15.445Z,0
2017-07-08T01:09:15.471Z,0
2017-07-08T01:10:15.525Z,0
2017-07-08T01:11:15.542Z,0
2017-07-08T01:12:15.571Z,0
2017-07-08T01:13:15.601Z,0
2017-07-08T01:14:15.663Z,0
2017-07-08T01:15:15.693Z,0
2017-07-08T01:16:15.718Z,0
2017-07-08T01:17:15.771Z,0
2017-07-08T01:18:15.804Z,0
2017-07-08T01:19:15.800Z,0
2017-07-08T01:20:15.826Z,0
2017-07-08T01:21:15.917Z,0
2017-07-08T01:22:15.918Z,0
2017-07-08T01:23:15.969Z,0
2017-07-08T01:24:16.018Z,0
2017-07-08T01:25:16.039Z,0
2017-07-08T01:26:16.083Z,0
2017-07-08T01:27:16.083Z,0
2017-07-08T01:28:16.150Z,0
2017-07-08T01:29:16.191Z,0
2017-07-08T01:30:16.222Z,0
2017-07-08T01:31:16.235Z,0
2017-07-08T01:32:16.299Z,0
2017-07-08T01:33:16.333Z,0
2017-07-08T01:34:16.345Z,0
2017-07-08T01:35:16.400Z,0
2017-07-08T01:36:16.432Z,0
2017-07-08T01:37:16.460Z,0
2017-07-08T01:38:16.502Z,0
2017-07-08T01:39:16.541Z,0
2017-07-08T01:40:16.582Z,0
2017-07-08T01:41:16.611Z,0
2017-07-08T01:42:16.655Z,0
2017-07-08T01:43:16.677Z,0
2017-07-08T01:44:16.702Z,0
2017-07-08T01:45:16.754Z,0
2017-07-08T01:46:16.780Z,0
2017-07-08T01:47:16.803Z,0
2017-07-08T01:48:16.858Z,0
2017-07-08T01:49:16.897Z,0
2017-07-08T01:50:16.926Z,0
2017-07-08T01:51:16.953Z,0
2017-07-08T01:52:16.996Z,0
2017-07-08T01:53:17.047Z,0
2017-07-08T01:54:17.047Z,0
2017-07-08T01:55:17.077Z,0
2017-07-08T01:56:17.142Z,0
2017-07-08T01:57:17.157Z,0
2017-07-08T01:58:17.238Z,0
2017-07-08T01:59:17.245Z,0
2017-07-08T02:00:17.332Z,0
2017-07-08T02:01:17.311Z,0
2017-07-08T02:02:17.369Z,0
2017-07-08T02:03:17.363Z,0
2017-07-08T02:04:17.412Z,0
2017-07-08T02:05:17.466Z,0
2017-07-08T02:06:17.479Z,0
2017-07-08T02:07:17.529Z,0
2017-07-08T02:08:17.607Z,0
2017-07-08T02:09:17.595Z,0
2017-07-08T02:10:17.627Z,0
2017-07-08T02:11:17.663Z,0
2017-07-08T02:12:17.698Z,0
2017-07-08T02:13:17.744Z,0
2017-07-08T02:14:17.757Z,0
2017-07-08T02:15:17.804Z,0
2017-07-08T02:16:17.844Z,4
2017-07-08T02:17:18.341Z,4
2017-07-08T02:18:18.522Z,4
2017-07-08T02:19:18.248Z,4
2017-07-08T02:20:18.575Z,0
2017-07-08T02:21:19.056Z,4
2017-07-08T02:22:18.035Z,4
2017-07-08T02:23:18.083Z,4
2017-07-08T02:24:18.966Z,4
2017-07-08T02:25:18.562Z,4
2017-07-08T02:26:18.238Z,8
2017-07-08T02:27:18.241Z,4
2017-07-08T02:28:19.085Z,8
2017-07-08T02:29:18.721Z,8
2017-07-08T02:30:18.528Z,12
2017-07-08T02:31:18.344Z,8
2017-07-08T02:32:18.366Z,8
2017-07-08T02:33:18.412Z,16
2017-07-08T02:34:18.459Z,16
2017-07-08T02:35:18.506Z,16
2017-07-08T02:36:18.537Z,16
2017-07-08T02:37:18.586Z,20
2017-07-08T02:38:18.622Z,20
2017-07-08T02:39:18.631Z,24
2017-07-08T02:40:18.681Z,24
2017-07-08T02:41:18.724Z,28
2017-07-08T02:42:18.755Z,32
2017-07-08T02:43:18.779Z,36
2017-07-08T02:44:18.831Z,40
2017-07-08T02:45:18.853Z,40
2017-07-08T02:46:18.907Z,44
2017-07-08T02:47:18.931Z,44
2017-07-08T02:48:18.939Z,52
2017-07-08T02:49:18.989Z,56
2017-07-08T02:50:19.016Z,60
2017-07-08T02:51:19.046Z,64
2017-07-08T02:52:19.093Z,68
2017-07-08T02:53:19.129Z,76
2017-07-08T02:54:19.162Z,80
2017-07-08T02:55:19.208Z,84
2017-07-08T02:56:19.225Z,88
2017-07-08T02:57:19.251Z,96
2017-07-08T02:58:19.309Z,100
2017-07-08T02:59:19.321Z,108
2017-07-08T03:00:19.360Z,116
2017-07-08T03:01:19.412Z,124
2017-07-08T03:02:19.446Z,132
2017-07-08T03:03:19.466Z,136
2017-07-08T03:04:19.493Z,136
2017-07-08T03:05:19.551Z,136
2017-07-08T03:06:19.586Z,136
2017-07-08T03:07:19.604Z,136
2017-07-08T03:08:19.659Z,136
2017-07-08T03:09:19.688Z,136
2017-07-08T03:10:19.902Z,136
2017-07-08T03:11:19.787Z,128
2017-07-08T03:12:19.768Z,120
2017-07-08T03:13:19.822Z,112
2017-07-08T03:14:19.862Z,104
2017-07-08T03:15:19.879Z,104
2017-07-08T03:16:19.928Z,108
2017-07-08T03:17:19.970Z,120
2017-07-08T03:18:19.999Z,136
2017-07-08T03:19:20.049Z,156
2017-07-08T03:20:20.059Z,164
2017-07-08T03:21:20.115Z,180
2017-07-08T03:22:20.124Z,200
2017-07-08T03:23:20.135Z,224
2017-07-08T03:24:20.216Z,252
2017-07-08T03:25:20.258Z,272
2017-07-08T03:26:20.262Z,288
2017-07-08T03:27:20.373Z,296
2017-07-08T03:28:20.337Z,312
2017-07-08T03:29:20.374Z,336
2017-07-08T03:30:20.470Z,360
2017-07-08T03:31:20.463Z,384
2017-07-08T03:32:20.471Z,408
2017-07-08T03:33:20.511Z,436
2017-07-08T03:34:20.556Z,480
2017-07-08T03:35:20.588Z,532
2017-07-08T03:36:20.622Z,560
2017-07-08T03:37:20.675Z,612
2017-07-08T03:38:20.697Z,656
2017-07-08T03:39:20.739Z,700
2017-07-08T03:40:20.776Z,804
2017-07-08T03:41:20.813Z,920
2017-07-08T03:42:20.838Z,996
2017-07-08T03:43:20.884Z,1032
2017-07-08T03:44:20.934Z,1080
2017-07-08T03:45:20.933Z,1140
2017-07-08T03:46:20.988Z,1212
2017-07-08T03:47:21.022Z,1228
2017-07-08T03:48:21.022Z,1112
2017-07-08T03:49:21.103Z,972
2017-07-08T03:50:21.109Z,844
2017-07-08T03:51:21.137Z,768
2017-07-08T03:52:21.177Z,756
2017-07-08T03:53:21.229Z,768
2017-07-08T03:54:21.260Z,820
2017-07-08T03:55:21.308Z,996
2017-07-08T03:56:21.336Z,1184
2017-07-08T03:57:21.379Z,1368
2017-07-08T03:58:21.403Z,1612
2017-07-08T03:59:21.436Z,1868
2017-07-08T04:00:25.119Z,1960
2017-07-08T04:01:25.186Z,2004
2017-07-08T04:02:25.228Z,2160
2017-07-08T04:03:25.232Z,2340
2017-07-08T04:04:25.285Z,2420
2017-07-08T04:05:25.333Z,2428
2017-07-08T04:06:25.353Z,2444
2017-07-08T04:07:25.382Z,2508
2017-07-08T04:08:25.445Z,2552
2017-07-08T04:09:25.448Z,2540
2017-07-08T04:10:25.491Z,2508
2017-07-08T04:11:25.535Z,2468
2017-07-08T04:12:25.565Z,2424
2017-07-08T04:13:25.607Z,2392
2017-07-08T04:14:25.761Z,2400
2017-07-08T04:15:25.684Z,2380
2017-07-08T04:16:25.740Z,2404
2017-07-08T04:17:25.765Z,2424
2017-07-08T04:18:25.789Z,2496
2017-07-08T04:19:25.812Z,2608
2017-07-08T04:20:25.853Z,2656
2017-07-08T04:21:25.907Z,2700
2017-07-08T04:22:25.968Z,2860
2017-07-08T04:23:25.962Z,3024
2017-07-08T04:24:25.968Z,3348
2017-07-08T04:25:26.067Z,3608
2017-07-08T04:26:26.084Z,3696
2017-07-08T04:27:26.134Z,3896
2017-07-08T04:28:26.202Z,4156
2017-07-08T04:29:26.161Z,4428
2017-07-08T04:30:26.218Z,4636
2017-07-08T04:31:26.497Z,4656
2017-07-08T04:32:26.272Z,4688
2017-07-08T04:33:26.401Z,4596
2017-07-08T04:34:26.395Z,4640
2017-07-08T04:35:26.399Z,4852
2017-07-08T04:36:26.478Z,4964
2017-07-08T04:37:26.467Z,5000
2017-07-08T04:38:26.633Z,5196
2017-07-08T04:39:26.529Z,5212
2017-07-08T04:40:26.563Z,4728
2017-07-08T04:41:26.604Z,4240
2017-07-08T04:42:26.739Z,3880
2017-07-08T04:43:26.693Z,3512
2017-07-08T04:44:26.751Z,3232
2017-07-08T04:45:26.833Z,2944
2017-07-08T04:46:26.789Z,2548
2017-07-08T04:47:26.898Z,2216
2017-07-08T04:48:26.971Z,2040
2017-07-08T04:49:26.908Z,1900
2017-07-08T04:50:27.041Z,1912
2017-07-08T04:51:26.962Z,2016
2017-07-08T04:52:27.009Z,2188
2017-07-08T04:53:27.054Z,2364
2017-07-08T04:54:27.169Z,2532
2017-07-08T04:55:27.201Z,2608
2017-07-08T04:56:27.165Z,2788
2017-07-08T04:57:27.166Z,3104
2017-07-08T04:58:27.341Z,3400
2017-07-08T04:59:27.264Z,3640
2017-07-08T05:00:27.320Z,3632
2017-07-08T05:01:27.364Z,3684
2017-07-08T05:02:27.401Z,3768
2017-07-08T05:03:27.426Z,3976
2017-07-08T05:04:27.490Z,4408
2017-07-08T05:05:27.522Z,5104
2017-07-08T05:06:27.510Z,5772
2017-07-08T05:07:27.543Z,6336
2017-07-08T05:08:27.625Z,6564
2017-07-08T05:09:27.632Z,6504
2017-07-08T05:10:27.734Z,6868
2017-07-08T05:11:27.706Z,6740
2017-07-08T05:12:27.821Z,6396
2017-07-08T05:13:27.927Z,6000
2017-07-08T05:14:27.807Z,5768
2017-07-08T05:15:27.829Z,5324
2017-07-08T05:16:27.986Z,5460
2017-07-08T05:17:28.003Z,5840
2017-07-08T05:18:27.968Z,6032
2017-07-08T05:19:28.195Z,6288
2017-07-08T05:20:28.138Z,6572
2017-07-08T05:21:28.164Z,6972
2017-07-08T05:22:28.144Z,7496
2017-07-08T05:23:28.125Z,8032
2017-07-08T05:24:28.187Z,8692
2017-07-08T05:25:28.234Z,7832
2017-07-08T05:26:28.256Z,7648
2017-07-08T05:27:28.283Z,7700
2017-07-08T05:28:28.353Z,7868
2017-07-08T05:29:28.375Z,7720
2017-07-08T05:30:28.407Z,7288
2017-07-08T05:31:28.507Z,6564
2017-07-08T05:32:28.552Z,6128
2017-07-08T05:33:28.512Z,5832
2017-07-08T05:34:28.533Z,5736
2017-07-08T05:35:28.589Z,5740
2017-07-08T05:36:28.637Z,5740
2017-07-08T05:37:28.652Z,5632
2017-07-08T05:38:28.699Z,5584
2017-07-08T05:39:28.747Z,5492
2017-07-08T05:40:28.788Z,5460
2017-07-08T05:41:28.836Z,5452
2017-07-08T05:42:28.848Z,5232
2017-07-08T05:43:29.117Z,5044
2017-07-08T05:44:28.944Z,4824
2017-07-08T05:45:29.171Z,4712
2017-07-08T05:46:29.264Z,4744
2017-07-08T05:47:29.232Z,4872
2017-07-08T05:48:29.144Z,4980
2017-07-08T05:49:29.414Z,4944
2017-07-08T05:50:29.145Z,4740
2017-07-08T05:51:29.198Z,4456
2017-07-08T05:52:29.225Z,4184
2017-07-08T05:53:29.402Z,4036
2017-07-08T05:54:29.290Z,3964
2017-07-08T05:55:29.416Z,4132
2017-07-08T05:56:29.384Z,4296
2017-07-08T05:57:29.414Z,4456
2017-07-08T05:58:29.509Z,4796
2017-07-08T05:59:29.514Z,5192
2017-07-08T06:00:29.629Z,5484
2017-07-08T06:01:29.633Z,5264
2017-07-08T06:02:29.631Z,4896
2017-07-08T06:03:29.643Z,4580
2017-07-08T06:04:29.689Z,4288
2017-07-08T06:05:29.717Z,3960
2017-07-08T06:06:29.812Z,3716
2017-07-08T06:07:29.806Z,3592
2017-07-08T06:08:29.822Z,3436
2017-07-08T06:09:29.935Z,3332
2017-07-08T06:10:29.873Z,3236
2017-07-08T06:11:29.947Z,3364
2017-07-08T06:12:30.005Z,3564
2017-07-08T06:13:29.994Z,3600
2017-07-08T06:14:30.104Z,3480
2017-07-08T06:15:30.103Z,3340
2017-07-08T06:16:30.097Z,3372
2017-07-08T06:17:30.230Z,3616
2017-07-08T06:18:30.198Z,3988
2017-07-08T06:19:30.471Z,4232
2017-07-08T06:20:30.275Z,4280
2017-07-08T06:21:30.287Z,4196
2017-07-08T06:22:30.485Z,4176
2017-07-08T06:23:30.349Z,4080
2017-07-08T06:24:30.622Z,3952
2017-07-08T06:25:30.503Z,3808
2017-07-08T06:26:30.502Z,3744
2017-07-08T06:27:30.502Z,3796
2017-07-08T06:28:30.572Z,3980
2017-07-08T06:29:30.649Z,4136
2017-07-08T06:30:30.653Z,4268
2017-07-08T06:31:30.678Z,4292
2017-07-08T06:32:30.786Z,4224
2017-07-08T06:33:30.762Z,4236
2017-07-08T06:34:30.882Z,4316
2017-07-08T06:35:30.919Z,4408
2017-07-08T06:36:30.975Z,4384
2017-07-08T06:37:30.893Z,4404
2017-07-08T06:38:30.933Z,4476
2017-07-08T06:39:31.031Z,4380
2017-07-08T06:40:31.043Z,4284
2017-07-08T06:41:31.045Z,4220
2017-07-08T06:42:31.147Z,4124
2017-07-08T06:43:31.152Z,4076
2017-07-08T06:44:31.325Z,4156
2017-07-08T06:45:31.194Z,4244
2017-07-08T06:46:31.233Z,4164
2017-07-08T06:47:31.324Z,4004
2017-07-08T06:48:31.306Z,3768
2017-07-08T06:49:31.313Z,3668
2017-07-08T06:50:31.375Z,3700
2017-07-08T06:51:31.395Z,3764
2017-07-08T06:52:31.551Z,3800
2017-07-08T06:53:31.495Z,3900
2017-07-08T06:54:31.516Z,4092
2017-07-08T06:55:31.623Z,4364
2017-07-08T06:56:31.597Z,4484
2017-07-08T06:57:31.651Z,4416
2017-07-08T06:58:31.721Z,4156
2017-07-08T06:59:32.017Z,4036
2017-07-08T07:00:31.724Z,3944
2017-07-08T07:01:31.894Z,3796
2017-07-08T07:02:31.813Z,3664
2017-07-08T07:03:31.849Z,3536
2017-07-08T07:04:31.898Z,3500
2017-07-08T07:05:31.969Z,3564
2017-07-08T07:06:32.096Z,3624
2017-07-08T07:07:32.015Z,3672
2017-07-08T07:08:32.019Z,3768
2017-07-08T07:09:32.171Z,3844
2017-07-08T07:10:32.184Z,3996
2017-07-08T07:11:32.283Z,4116
2017-07-08T07:12:32.410Z,4328
2017-07-08T07:13:32.225Z,4488
2017-07-08T07:14:32.264Z,4560
2017-07-08T07:15:32.353Z,4592
2017-07-08T07:16:32.409Z,4584
2017-07-08T07:17:32.430Z,4576
2017-07-08T07:18:32.432Z,4412
2017-07-08T07:19:32.433Z,4156
2017-07-08T07:20:32.697Z,4088
2017-07-08T07:21:32.510Z,3924
2017-07-08T07:22:32.561Z,3928
2017-07-08T07:23:32.688Z,3920
2017-07-08T07:24:32.831Z,3892
2017-07-08T07:25:32.941Z,3940
2017-07-08T07:26:32.706Z,3924
2017-07-08T07:27:32.780Z,3888
2017-07-08T07:28:32.815Z,3928
2017-07-08T07:29:32.849Z,4140
2017-07-08T07:30:32.845Z,4376
2017-07-08T07:31:32.922Z,4664
2017-07-08T07:32:32.932Z,4972
2017-07-08T07:33:33.148Z,5136
2017-07-08T07:34:33.157Z,5180
2017-07-08T07:35:33.032Z,5116
2017-07-08T07:36:33.084Z,5300
2017-07-08T07:37:33.103Z,5424
2017-07-08T07:38:33.130Z,5444
2017-07-08T07:39:33.259Z,5404
2017-07-08T07:40:33.240Z,5556
2017-07-08T07:41:33.288Z,5588
2017-07-08T07:42:33.566Z,5500
2017-07-08T07:43:33.321Z,5424
2017-07-08T07:44:33.363Z,5432
2017-07-08T07:45:33.389Z,5532
2017-07-08T07:46:33.434Z,5448
2017-07-08T07:47:33.455Z,5388
2017-07-08T07:48:33.522Z,5404
2017-07-08T07:49:33.595Z,5400
2017-07-08T07:50:33.587Z,5504
2017-07-08T07:51:33.666Z,5672
2017-07-08T07:52:33.667Z,5948
2017-07-08T07:53:33.710Z,5948
2017-07-08T07:54:33.705Z,5956
2017-07-08T07:55:33.767Z,5908
2017-07-08T07:56:33.911Z,5876
2017-07-08T07:57:33.961Z,5664
2017-07-08T07:58:33.934Z,4776
2017-07-08T07:59:33.895Z,4780
2017-07-08T08:00:33.971Z,5116
2017-07-08T08:01:34.007Z,5256
2017-07-08T08:02:34.043Z,5540
2017-07-08T08:03:34.114Z,5844
2017-07-08T08:04:34.173Z,6040
2017-07-08T08:05:34.235Z,5924
2017-07-08T08:06:34.164Z,5676
2017-07-08T08:07:34.250Z,5732
2017-07-08T08:08:34.309Z,5944
2017-07-08T08:09:34.354Z,6308
2017-07-08T08:10:34.365Z,6040
2017-07-08T08:11:34.365Z,6064
2017-07-08T08:12:34.413Z,5544
2017-07-08T08:13:34.433Z,6204
2017-07-08T08:14:34.531Z,6932
2017-07-08T08:15:34.519Z,6692
2017-07-08T08:16:34.563Z,5976
2017-07-08T08:17:34.586Z,5460
2017-07-08T08:18:34.709Z,6828
2017-07-08T08:19:34.665Z,7104
2017-07-08T08:20:34.737Z,7200
2017-07-08T08:21:34.803Z,6668
2017-07-08T08:22:34.763Z,7156
2017-07-08T08:23:34.794Z,7524
2017-07-08T08:24:34.848Z,7728
2017-07-08T08:25:34.883Z,8172
2017-07-08T08:26:34.902Z,8332
2017-07-08T08:27:35.057Z,8828
2017-07-08T08:28:35.002Z,9336
2017-07-08T08:29:35.042Z,9620
2017-07-08T08:30:35.060Z,9624
2017-07-08T08:31:35.118Z,9520
2017-07-08T08:32:35.168Z,9344
2017-07-08T08:33:35.230Z,9268
2017-07-08T08:34:35.398Z,9268
2017-07-08T08:35:35.436Z,9376
2017-07-08T08:36:36.152Z,9588
2017-07-08T08:37:35.468Z,10100
2017-07-08T08:38:35.573Z,10608
2017-07-08T08:39:35.500Z,10656
2017-07-08T08:40:35.451Z,12220
2017-07-08T08:41:35.779Z,11416
2017-07-08T08:42:35.556Z,10332
2017-07-08T08:43:35.625Z,10720
2017-07-08T08:44:35.823Z,10800
2017-07-08T08:45:35.690Z,8672
2017-07-08T08:46:35.771Z,8348
2017-07-08T08:47:35.715Z,8688
2017-07-08T08:48:35.899Z,9712
2017-07-08T08:49:35.841Z,8984
2017-07-08T08:50:35.917Z,9644
2017-07-08T08:51:35.861Z,9428
2017-07-08T08:52:35.950Z,8256
2017-07-08T08:53:35.983Z,9432
2017-07-08T08:54:35.982Z,10880
2017-07-08T08:55:36.058Z,12352
2017-07-08T08:56:36.144Z,16288
2017-07-08T08:57:36.089Z,17568
2017-07-08T08:58:36.242Z,15648
2017-07-08T08:59:36.122Z,13776
2017-07-08T09:00:36.319Z,13284
2017-07-08T09:01:36.383Z,14472
2017-07-08T09:02:36.286Z,11792
2017-07-08T09:03:36.534Z,10088
2017-07-08T09:04:36.450Z,7304
2017-07-08T09:05:36.451Z,7468
2017-07-08T09:06:36.444Z,6728
2017-07-08T09:07:36.484Z,5324
2017-07-08T09:08:36.547Z,4664
2017-07-08T09:09:36.583Z,6988
2017-07-08T09:10:36.639Z,7704
2017-07-08T09:11:36.665Z,6588
2017-07-08T09:12:36.695Z,8172
2017-07-08T09:13:36.690Z,8068
2017-07-08T09:14:36.815Z,6200
2017-07-08T09:15:36.915Z,6212
2017-07-08T09:16:36.821Z,6532
2017-07-08T09:17:36.854Z,7308
2017-07-08T09:18:37.092Z,9060
2017-07-08T09:19:36.936Z,9744
2017-07-08T09:20:37.322Z,10272
2017-07-08T09:21:37.119Z,10760
2017-07-08T09:22:37.055Z,10664
2017-07-08T09:23:37.191Z,10280
2017-07-08T09:24:37.258Z,9940
2017-07-08T09:25:37.218Z,9960
2017-07-08T09:26:37.217Z,9900
2017-07-08T09:27:37.262Z,9484
2017-07-08T09:28:37.317Z,9280
2017-07-08T09:29:37.340Z,9960
2017-07-08T09:30:37.393Z,11076
2017-07-08T09:31:37.462Z,11452
2017-07-08T09:32:37.535Z,12280
2017-07-08T09:33:37.471Z,12640
2017-07-08T09:34:37.592Z,13112
2017-07-08T09:35:37.782Z,12788
2017-07-08T09:36:37.590Z,10080
2017-07-08T09:37:37.738Z,7972
2017-07-08T09:38:37.664Z,8404
2017-07-08T09:39:37.795Z,7584
2017-07-08T09:40:37.750Z,6820
2017-07-08T09:41:37.786Z,7008
2017-07-08T09:42:37.793Z,8056
2017-07-08T09:43:37.834Z,7036
2017-07-08T09:44:37.890Z,7060
2017-07-08T09:45:37.917Z,8216
2017-07-08T09:46:38.416Z,9236
2017-07-08T09:47:37.979Z,8936
2017-07-08T09:48:38.046Z,9748
2017-07-08T09:49:38.306Z,10400
2017-07-08T09:50:38.128Z,10932
2017-07-08T09:51:38.135Z,9768
2017-07-08T09:52:38.297Z,8104
2017-07-08T09:53:38.244Z,7740
2017-07-08T09:54:38.332Z,6892
2017-07-08T09:55:38.285Z,5252
2017-07-08T09:56:38.448Z,4996
2017-07-08T09:57:38.394Z,5084
2017-07-08T09:58:38.429Z,6024
2017-07-08T09:59:38.768Z,5468
2017-07-08T10:00:38.564Z,6160
2017-07-08T10:01:38.582Z,5748
2017-07-08T10:02:38.588Z,3916
2017-07-08T10:03:38.634Z,3200
2017-07-08T10:04:38.751Z,3552
2017-07-08T10:05:39.096Z,4032
2017-07-08T10:06:38.744Z,4176
2017-07-08T10:07:38.791Z,4376
2017-07-08T10:08:38.816Z,4716
2017-07-08T10:09:38.874Z,5104
2017-07-08T10:10:38.942Z,5468
2017-07-08T10:11:39.292Z,5460
2017-07-08T10:12:39.213Z,4316
2017-07-08T10:13:39.162Z,4176
2017-07-08T10:14:39.044Z,4808
2017-07-08T10:15:39.084Z,3772
2017-07-08T10:16:39.125Z,3420
2017-07-08T10:17:39.206Z,4196
2017-07-08T10:18:39.204Z,4716
2017-07-08T10:19:39.218Z,3900
2017-07-08T10:20:39.455Z,3608
2017-07-08T10:21:39.324Z,3620
2017-07-08T10:22:39.322Z,4916
2017-07-08T10:23:39.484Z,4644
2017-07-08T10:24:39.529Z,4660
2017-07-08T10:25:39.436Z,4228
2017-07-08T10:26:39.510Z,4040
2017-07-08T10:27:39.538Z,4660
2017-07-08T10:28:39.599Z,5652
2017-07-08T10:29:39.665Z,6160
2017-07-08T10:30:39.689Z,6220
2017-07-08T10:31:39.696Z,6148
2017-07-08T10:32:39.709Z,6180
2017-07-08T10:33:39.804Z,6376
2017-07-08T10:34:39.993Z,6652
2017-07-08T10:35:39.851Z,6872
2017-07-08T10:36:39.891Z,6964
2017-07-08T10:37:39.908Z,7072
2017-07-08T10:38:40.026Z,6980
2017-07-08T10:39:40.406Z,7168
2017-07-08T10:40:40.291Z,7404
2017-07-08T10:41:40.068Z,8076
2017-07-08T10:42:40.137Z,9356
2017-07-08T10:43:40.171Z,10276
2017-07-08T10:44:40.243Z,12452
2017-07-08T10:45:40.211Z,13508
2017-07-08T10:46:40.261Z,13656
2017-07-08T10:47:40.342Z,13960
2017-07-08T10:48:40.363Z,12688
2017-07-08T10:49:40.363Z,12320
2017-07-08T10:50:40.485Z,10960
2017-07-08T10:51:40.678Z,12808
2017-07-08T10:52:40.721Z,14612
2017-07-08T10:53:42.395Z,12408
2017-07-08T10:54:40.614Z,13404
2017-07-08T10:55:40.621Z,13188
2017-07-08T10:56:40.610Z,10108
2017-07-08T10:57:40.647Z,10768
2017-07-08T10:58:40.706Z,12012
2017-07-08T10:59:41.355Z,11520
2017-07-08T11:00:40.789Z,11636
2017-07-08T11:01:40.941Z,12160
2017-07-08T11:02:40.859Z,12180
2017-07-08T11:03:40.949Z,12008
2017-07-08T11:04:41.113Z,11944
2017-07-08T11:05:41.010Z,11484
2017-07-08T11:06:41.194Z,12360
2017-07-08T11:07:41.257Z,12844
2017-07-08T11:08:41.094Z,12412
2017-07-08T11:09:41.122Z,13160
2017-07-08T11:10:41.207Z,11208
2017-07-08T11:11:41.420Z,8932
2017-07-08T11:12:41.303Z,10232
2017-07-08T11:13:41.376Z,10860
2017-07-08T11:14:41.330Z,11620
2017-07-08T11:15:41.467Z,9888
2017-07-08T11:16:41.401Z,8384
2017-07-08T11:17:41.549Z,6944
2017-07-08T11:18:41.470Z,7516
2017-07-08T11:19:41.584Z,8360
2017-07-08T11:20:41.558Z,8872
2017-07-08T11:21:41.660Z,9116
2017-07-08T11:22:41.672Z,10080
2017-07-08T11:23:41.650Z,11228
2017-07-08T11:24:41.693Z,11244
2017-07-08T11:25:43.448Z,10468
2017-07-08T11:26:41.947Z,9820
2017-07-08T11:27:42.219Z,10536
2017-07-08T11:28:41.883Z,11876
2017-07-08T11:29:41.907Z,13412
2017-07-08T11:30:41.970Z,12968
2017-07-08T11:31:41.956Z,14668
2017-07-08T11:32:42.007Z,13968
2017-07-08T11:33:42.105Z,11192
2017-07-08T11:34:42.506Z,13028
2017-07-08T11:35:42.153Z,10892
2017-07-08T11:36:42.176Z,10044
2017-07-08T11:37:42.397Z,14540
2017-07-08T11:38:42.953Z,16128
2017-07-08T11:39:42.636Z,14384
2017-07-08T11:40:42.714Z,13144
2017-07-08T11:41:42.613Z,11632
2017-07-08T11:42:42.397Z,10788
2017-07-08T11:43:42.510Z,12152
2017-07-08T11:44:42.516Z,11820
2017-07-08T11:45:42.528Z,10236
2017-07-08T11:46:42.823Z,9772
2017-07-08T11:47:42.641Z,10136
2017-07-08T11:48:42.869Z,11100
2017-07-08T11:49:42.894Z,11680
2017-07-08T11:50:43.029Z,12316
2017-07-08T11:51:42.798Z,9356
2017-07-08T11:52:42.778Z,7820
2017-07-08T11:53:43.095Z,6172
2017-07-08T11:54:43.085Z,5760
2017-07-08T11:55:42.936Z,7724
2017-07-08T11:56:43.278Z,6964
2017-07-08T11:57:43.006Z,6260
2017-07-08T11:58:43.497Z,8100
2017-07-08T11:59:43.207Z,7524
2017-07-08T12:00:43.349Z,6868
2017-07-08T12:01:43.198Z,6868
2017-07-08T12:02:43.245Z,7380
2017-07-08T12:03:43.333Z,8476
2017-07-08T12:04:43.523Z,7596
2017-07-08T12:05:43.289Z,6668
2017-07-08T12:06:43.433Z,7128
2017-07-08T12:07:43.386Z,5796
2017-07-08T12:08:43.451Z,7024
2017-07-08T12:09:43.513Z,6952
2017-07-08T12:10:43.510Z,6604
2017-07-08T12:11:43.563Z,6936
2017-07-08T12:12:43.643Z,6200
2017-07-08T12:13:43.622Z,5620
2017-07-08T12:14:43.925Z,6912
2017-07-08T12:15:43.707Z,6712
2017-07-08T12:16:43.785Z,7084
2017-07-08T12:17:43.805Z,7344
2017-07-08T12:18:44.075Z,7916
2017-07-08T12:19:44.081Z,8640
2017-07-08T12:20:43.948Z,9628
2017-07-08T12:21:43.933Z,8184
2017-07-08T12:22:43.983Z,7380
2017-07-08T12:23:44.201Z,7336
2017-07-08T12:24:44.163Z,7644
2017-07-08T12:25:44.094Z,7344
2017-07-08T12:26:44.159Z,7984
2017-07-08T12:27:44.211Z,6096
2017-07-08T12:28:44.229Z,6080
2017-07-08T12:29:44.549Z,6536
2017-07-08T12:30:44.516Z,6032
2017-07-08T12:31:44.366Z,5968
2017-07-08T12:32:44.358Z,6896
2017-07-08T12:33:44.436Z,5524
2017-07-08T12:34:44.666Z,4632
2017-07-08T12:35:44.498Z,6064
2017-07-08T12:36:44.574Z,6128
2017-07-08T12:37:44.570Z,5940
2017-07-08T12:38:44.591Z,5924
2017-07-08T12:39:44.841Z,5156
2017-07-08T12:40:44.770Z,5020
2017-07-08T12:41:44.805Z,5148
2017-07-08T12:42:44.731Z,4456
2017-07-08T12:43:44.784Z,4592
2017-07-08T12:44:45.054Z,5360
2017-07-08T12:45:45.070Z,5616
2017-07-08T12:46:45.008Z,4028
2017-07-08T12:47:44.955Z,3344
2017-07-08T12:48:45.003Z,3372
2017-07-08T12:49:45.000Z,3536
2017-07-08T12:50:45.064Z,3960
2017-07-08T12:51:45.384Z,4376
2017-07-08T12:52:45.246Z,4244
2017-07-08T12:53:45.903Z,4004
2017-07-08T12:54:45.290Z,3668
2017-07-08T12:55:45.316Z,4444
2017-07-08T12:56:45.709Z,3884
2017-07-08T12:57:45.297Z,5220
2017-07-08T12:58:45.381Z,5516
2017-07-08T12:59:46.131Z,6264
2017-07-08T13:00:45.442Z,5292
2017-07-08T13:01:45.495Z,4560
2017-07-08T13:02:45.530Z,3788
2017-07-08T13:03:45.549Z,3104
2017-07-08T13:04:45.577Z,3244
2017-07-08T13:05:45.643Z,3628
2017-07-08T13:06:45.667Z,3104
2017-07-08T13:07:45.696Z,3604
2017-07-08T13:08:45.759Z,3740
2017-07-08T13:09:45.816Z,4520
2017-07-08T13:10:45.817Z,4284
2017-07-08T13:11:46.159Z,4420
2017-07-08T13:12:45.935Z,5028
2017-07-08T13:13:45.910Z,5724
2017-07-08T13:14:45.959Z,5412
2017-07-08T13:15:46.246Z,5300
2017-07-08T13:16:46.111Z,4044
2017-07-08T13:17:46.123Z,3912
2017-07-08T13:18:46.257Z,4372
2017-07-08T13:19:46.255Z,4772
2017-07-08T13:20:46.536Z,4992
2017-07-08T13:21:46.307Z,4444
2017-07-08T13:22:46.489Z,4644
2017-07-08T13:23:46.532Z,5160
2017-07-08T13:24:46.427Z,4936
2017-07-08T13:25:46.397Z,4676
2017-07-08T13:26:46.674Z,5132
2017-07-08T13:27:46.495Z,4588
2017-07-08T13:28:46.680Z,4668
2017-07-08T13:29:46.599Z,4248
2017-07-08T13:30:46.615Z,3736
2017-07-08T13:31:46.623Z,3240
2017-07-08T13:32:46.680Z,3240
2017-07-08T13:33:46.706Z,3544
2017-07-08T13:34:46.769Z,3688